Time;durP1;ratioP1;P1;durP2;ratioP2;P2;SDS_P1;SDS_P2;PMS_P1;PMS_P2;Temp;Humidity;BMP_temperature;BMP_pressure;BME280_temperature;BME280_humidity;BME280_pressure;Samples;Min_cycle;Max_cycle;Signal;HPM_P1;HPM_P2
2022/06/21 00:00:51;;;;;;;0.80;0.80;;;13.90;99.90;;;;;;5014650;28;20185;-74
2022/06/21 00:03:23;;;;;;;1.00;1.00;;;13.90;99.90;;;;;;5012336;28;20193;-74
2022/06/21 00:05:51;;;;;;;3.78;1.02;;;13.80;99.90;;;;;;5012532;28;20178;-74
2022/06/21 00:08:29;;;;;;;0.95;0.90;;;13.80;99.90;;;;;;5019162;28;20181;-73
2022/06/21 00:10:57;;;;;;;0.98;0.98;;;13.70;99.90;;;;;;5012597;28;20169;-75
2022/06/21 00:13:26;;;;;;;0.80;0.80;;;13.70;99.90;;;;;;5011019;28;20204;-74
2022/06/21 00:15:58;;;;;;;1.75;0.80;;;13.60;99.90;;;;;;5012474;28;20173;-75
2022/06/21 00:18:24;;;;;;;0.88;0.88;;;13.50;99.90;;;;;;5012676;28;20185;-75
2022/06/21 00:20:50;;;;;;;0.90;0.90;;;13.50;99.90;;;;;;5012903;28;20173;-74
2022/06/21 00:23:20;;;;;;;0.75;0.75;;;13.50;99.90;;;;;;5012269;28;20225;-74
2022/06/21 00:25:46;;;;;;;1.48;0.80;;;13.50;99.90;;;;;;5012336;28;20186;-75
2022/06/21 00:28:16;;;;;;;0.82;0.82;;;13.40;99.90;;;;;;5019136;28;20210;-74
2022/06/21 00:30:44;;;;;;;0.80;0.80;;;13.40;99.90;;;;;;5038387;28;20192;-75
2022/06/21 00:33:15;;;;;;;1.05;0.88;;;13.30;99.90;;;;;;5037468;28;20604;-74
2022/06/21 00:35:43;;;;;;;0.77;0.77;;;13.30;99.90;;;;;;5036262;28;20179;-74
2022/06/21 00:38:15;;;;;;;0.80;0.80;;;13.30;99.90;;;;;;5043431;28;20624;-74
2022/06/21 00:40:42;;;;;;;1.00;0.98;;;13.30;99.90;;;;;;5041290;28;20176;-75
2022/06/21 00:43:16;;;;;;;0.60;0.60;;;13.30;99.90;;;;;;5046963;28;20209;-74
2022/06/21 00:45:44;;;;;;;0.95;0.95;;;13.20;99.90;;;;;;5014803;28;20653;-74
2022/06/21 00:48:33;;;;;;;1.55;1.00;;;13.20;99.90;;;;;;5015795;28;20188;-76
2022/06/21 00:51:23;;;;;;;1.15;1.05;;;13.20;99.90;;;;;;5017286;28;20208;-74
2022/06/21 00:53:57;;;;;;;1.42;1.23;;;13.20;99.90;;;;;;5015761;28;20200;-75
2022/06/21 00:56:34;;;;;;;0.93;0.93;;;13.20;99.90;;;;;;5016217;28;20555;-75
2022/06/21 00:59:20;;;;;;;1.17;0.90;;;13.30;99.90;;;;;;5015559;28;20161;-74
2022/06/21 01:01:46;;;;;;;1.83;1.05;;;13.30;99.90;;;;;;5014706;28;20730;-74
2022/06/21 01:04:14;;;;;;;0.98;0.98;;;13.30;99.90;;;;;;5022585;28;20181;-74
2022/06/21 01:06:45;;;;;;;1.05;1.00;;;13.20;99.90;;;;;;5035293;28;20173;-74
2022/06/21 01:09:18;;;;;;;1.33;1.02;;;13.20;99.90;;;;;;5032928;28;20188;-74
2022/06/21 01:12:13;;;;;;;0.85;0.68;;;13.10;99.90;;;;;;5035094;28;20226;-74
2022/06/21 01:14:46;;;;;;;1.65;1.10;;;13.10;99.90;;;;;;5034554;28;20191;-75
2022/06/21 01:17:12;;;;;;;0.85;0.85;;;13.10;99.90;;;;;;5033615;28;20623;-75
2022/06/21 01:19:41;;;;;;;1.48;0.90;;;13.10;99.90;;;;;;5015748;28;20605;-75
2022/06/21 01:22:16;;;;;;;0.80;0.80;;;13.00;99.90;;;;;;5015084;28;20198;-74
2022/06/21 01:25:33;;;;;;;1.40;0.73;;;13.00;99.90;;;;;;5015387;28;20173;-74
2022/06/21 01:28:00;;;;;;;3.47;1.08;;;12.90;99.90;;;;;;5018936;28;20296;-74
2022/06/21 01:30:28;;;;;;;1.10;1.00;;;12.90;99.90;;;;;;5013661;28;20276;-75
2022/06/21 01:32:56;;;;;;;0.90;0.90;;;12.90;99.90;;;;;;5015168;28;20193;-74
2022/06/21 01:35:31;;;;;;;0.95;0.95;;;12.80;99.90;;;;;;5014959;28;20196;-75
2022/06/21 01:37:58;;;;;;;0.90;0.90;;;12.80;99.90;;;;;;5014545;28;20216;-74
2022/06/21 01:40:29;;;;;;;1.33;1.23;;;12.80;99.90;;;;;;5015105;28;20173;-75
2022/06/21 01:43:01;;;;;;;2.08;0.80;;;12.70;99.90;;;;;;5014710;28;20209;-74
2022/06/21 01:45:32;;;;;;;0.90;0.90;;;12.70;99.90;;;;;;5014918;28;20177;-74
2022/06/21 01:48:10;;;;;;;1.40;1.30;;;12.70;99.90;;;;;;5014950;28;20177;-74
2022/06/21 01:50:38;;;;;;;1.00;0.88;;;12.60;99.90;;;;;;5014824;28;20261;-75
2022/06/21 01:53:07;;;;;;;1.40;1.05;;;12.60;99.90;;;;;;5014615;28;20224;-75
2022/06/21 01:55:47;;;;;;;1.35;1.25;;;12.50;99.90;;;;;;5014096;28;20192;-75
2022/06/21 01:58:17;;;;;;;1.77;1.15;;;12.50;99.90;;;;;;5014345;28;20212;-74
2022/06/21 02:00:53;;;;;;;1.10;1.00;;;12.50;99.90;;;;;;5015685;28;20192;-74
2022/06/21 02:03:26;;;;;;;3.88;1.20;;;12.40;99.90;;;;;;5014120;28;20687;-75
2022/06/21 02:05:55;;;;;;;1.10;0.98;;;12.40;99.90;;;;;;5014358;28;20644;-74
2022/06/21 02:08:34;;;;;;;1.10;1.10;;;12.40;99.90;;;;;;5013454;28;20269;-74
2022/06/21 02:11:05;;;;;;;1.48;0.90;;;12.40;99.90;;;;;;5023197;28;20192;-75
2022/06/21 02:13:39;;;;;;;1.17;1.02;;;12.40;99.90;;;;;;5033374;28;20667;-74
2022/06/21 02:16:17;;;;;;;1.05;1.05;;;12.40;99.90;;;;;;5032194;28;20282;-75
2022/06/21 02:18:49;;;;;;;1.48;1.33;;;12.30;99.90;;;;;;5035589;28;20182;-76
2022/06/21 02:21:17;;;;;;;0.90;0.90;;;12.30;99.90;;;;;;5046055;28;20185;-74
2022/06/21 02:23:49;;;;;;;1.20;1.10;;;12.20;99.90;;;;;;5033768;28;20203;-75
2022/06/21 02:26:15;;;;;;;1.67;1.10;;;12.20;99.90;;;;;;5033770;28;20179;-74
2022/06/21 02:28:41;;;;;;;1.33;1.10;;;12.20;99.90;;;;;;5032537;28;20181;-75
2022/06/21 02:31:09;;;;;;;0.80;0.80;;;12.20;99.90;;;;;;5014079;28;20197;-74
2022/06/21 02:33:36;;;;;;;0.90;0.90;;;12.20;99.90;;;;;;5012150;28;20193;-74
2022/06/21 02:36:07;;;;;;;1.80;1.05;;;12.10;99.90;;;;;;5013822;28;20188;-75
2022/06/21 02:38:44;;;;;;;2.70;1.15;;;12.10;99.90;;;;;;5014131;28;20582;-74
2022/06/21 02:41:23;;;;;;;0.82;0.82;;;12.20;99.90;;;;;;5013578;28;20192;-75
2022/06/21 02:44:18;;;;;;;1.20;1.20;;;12.10;99.90;;;;;;5015063;28;20200;-74
2022/06/21 02:46:50;;;;;;;0.90;0.90;;;12.10;99.90;;;;;;5032386;28;20655;-74
2022/06/21 02:49:37;;;;;;;1.35;1.08;;;12.10;99.90;;;;;;5033192;28;20182;-74
2022/06/21 02:52:16;;;;;;;1.15;1.10;;;12.10;99.90;;;;;;5031444;28;20201;-74
2022/06/21 02:54:54;;;;;;;1.20;1.20;;;12.00;99.90;;;;;;5031093;28;20623;-74
2022/06/21 02:57:28;;;;;;;1.55;1.00;;;12.00;99.90;;;;;;5041660;28;20659;-76
2022/06/21 02:59:56;;;;;;;1.30;1.25;;;11.90;99.90;;;;;;5028855;28;20183;-76
2022/06/21 03:02:25;;;;;;;1.48;1.38;;;11.90;99.90;;;;;;5047440;28;20192;-76
2022/06/21 03:04:56;;;;;;;1.10;1.10;;;11.70;99.90;;;;;;5027901;28;20219;-77
2022/06/21 03:07:28;;;;;;;1.27;1.08;;;11.70;99.90;;;;;;5020239;28;20181;-76
2022/06/21 03:09:55;;;;;;;1.70;0.95;;;11.70;99.90;;;;;;5031622;28;20182;-76
2022/06/21 03:12:24;;;;;;;1.20;1.20;;;11.60;99.90;;;;;;5030301;28;20695;-76
2022/06/21 03:14:56;;;;;;;1.45;1.35;;;11.60;99.90;;;;;;5027115;28;20200;-77
2022/06/21 03:17:29;;;;;;;1.27;1.27;;;11.50;99.90;;;;;;5013468;28;20746;-76
2022/06/21 03:19:55;;;;;;;1.38;1.35;;;11.50;99.90;;;;;;5013436;28;20173;-77
2022/06/21 03:22:24;;;;;;;1.20;1.10;;;11.50;99.90;;;;;;5012578;28;20193;-77
2022/06/21 03:24:53;;;;;;;1.25;1.15;;;11.50;99.90;;;;;;5012758;28;20204;-77
2022/06/21 03:27:24;;;;;;;3.00;1.20;;;11.50;99.90;;;;;;5021644;28;20180;-77
2022/06/21 03:29:50;;;;;;;1.90;1.30;;;11.50;99.90;;;;;;5032792;28;20292;-76
2022/06/21 03:32:16;;;;;;;1.45;1.35;;;11.50;99.90;;;;;;5026057;28;20204;-77
2022/06/21 03:34:43;;;;;;;1.20;1.10;;;11.60;99.90;;;;;;5013288;28;20177;-77
2022/06/21 03:37:10;;;;;;;1.20;1.20;;;11.50;99.90;;;;;;5013349;28;20675;-77
2022/06/21 03:42:27;;;;;;;1.30;1.15;;;11.50;99.90;;;;;;5023849;28;20211;-77
2022/06/21 03:45:01;;;;;;;1.85;1.25;;;11.60;99.90;;;;;;5032908;28;20173;-76
2022/06/21 03:47:37;;;;;;;1.40;1.30;;;11.60;99.90;;;;;;5032663;28;20191;-76
2022/06/21 03:50:25;;;;;;;1.40;1.40;;;11.60;99.90;;;;;;5024176;28;20210;-77
2022/06/21 03:53:07;;;;;;;4.18;1.40;;;11.60;99.90;;;;;;5025510;28;20282;-76
2022/06/21 03:56:13;;;;;;;1.40;1.40;;;11.60;99.90;;;;;;5029577;28;20181;-77
2022/06/21 03:59:02;;;;;;;1.20;1.20;;;11.70;99.90;;;;;;5012468;28;20203;-76
2022/06/21 04:01:38;;;;;;;1.60;1.50;;;11.80;99.90;;;;;;5013042;28;20231;-76
2022/06/21 04:04:16;;;;;;;1.60;1.50;;;11.90;99.90;;;;;;5012969;28;20251;-77
2022/06/21 04:06:49;;;;;;;2.15;1.40;;;11.90;99.90;;;;;;5013257;28;20227;-76
2022/06/21 04:09:26;;;;;;;1.35;1.35;;;12.00;99.90;;;;;;5012982;28;20698;-77
2022/06/21 04:12:21;;;;;;;1.45;1.35;;;12.10;99.90;;;;;;5012651;28;20678;-76
2022/06/21 04:15:17;;;;;;;1.42;1.33;;;12.10;99.90;;;;;;5012812;28;20641;-76
2022/06/21 04:17:49;;;;;;;2.90;1.20;;;12.20;99.90;;;;;;5011689;28;20243;-76
2022/06/21 04:20:31;;;;;;;1.90;1.30;;;12.20;99.90;;;;;;5030207;28;20179;-78
2022/06/21 04:23:12;;;;;;;1.27;1.17;;;12.30;99.90;;;;;;5043579;28;20291;-76
2022/06/21 04:25:41;;;;;;;1.45;1.35;;;12.40;99.90;;;;;;5029932;28;20218;-76
2022/06/21 04:28:19;;;;;;;1.25;1.20;;;12.40;99.90;;;;;;5040935;28;20241;-77
2022/06/21 04:31:03;;;;;;;1.88;1.27;;;12.50;99.90;;;;;;5027516;28;20200;-77
2022/06/21 04:33:40;;;;;;;1.77;1.38;;;12.50;99.90;;;;;;5024026;28;20200;-76
2022/06/21 04:36:13;;;;;;;1.58;1.48;;;12.60;99.90;;;;;;5015707;28;20289;-76
2022/06/21 04:38:51;;;;;;;2.58;1.75;;;12.70;99.90;;;;;;5021351;28;20173;-76
2022/06/21 04:41:37;;;;;;;3.38;1.63;;;12.70;99.90;;;;;;5024719;28;20179;-76
2022/06/21 04:44:15;;;;;;;1.70;1.60;;;12.70;99.90;;;;;;5029545;28;20220;-75
2022/06/21 04:47:06;;;;;;;2.17;1.50;;;12.80;99.90;;;;;;5053163;28;20180;-75
2022/06/21 04:49:37;;;;;;;1.50;1.50;;;12.80;99.90;;;;;;5041328;28;20185;-75
2022/06/21 04:52:08;;;;;;;1.73;1.63;;;12.80;99.90;;;;;;5033272;28;20554;-76
2022/06/21 04:54:37;;;;;;;2.47;1.73;;;12.90;99.90;;;;;;5046058;28;20189;-76
2022/06/21 04:57:07;;;;;;;2.70;1.92;;;13.00;99.90;;;;;;5040631;28;20208;-77
2022/06/21 04:59:59;;;;;;;2.35;1.88;;;13.00;99.90;;;;;;5023095;28;20179;-76
2022/06/21 05:02:31;;;;;;;1.92;1.70;;;13.10;99.90;;;;;;5021423;28;20221;-75
2022/06/21 05:05:19;;;;;;;1.95;1.73;;;13.20;99.90;;;;;;5024030;28;20558;-76
2022/06/21 05:07:49;;;;;;;1.80;1.70;;;13.30;99.90;;;;;;5023848;28;20190;-76
2022/06/21 05:10:19;;;;;;;1.25;1.25;;;13.30;99.90;;;;;;5019391;28;20177;-76
2022/06/21 05:12:47;;;;;;;2.72;1.70;;;13.40;99.90;;;;;;5024710;28;20213;-77
2022/06/21 05:15:21;;;;;;;1.58;1.40;;;13.40;99.90;;;;;;5029789;28;20821;-77
2022/06/21 05:17:58;;;;;;;2.00;1.80;;;13.50;99.90;;;;;;5025896;28;20292;-77
2022/06/21 05:20:29;;;;;;;6.00;1.80;;;13.60;99.90;;;;;;5024432;28;20170;-77
2022/06/21 05:22:58;;;;;;;2.15;1.98;;;13.60;99.90;;;;;;5028276;28;20213;-77
2022/06/21 05:25:32;;;;;;;2.58;2.38;;;13.70;99.90;;;;;;5029575;28;20554;-77
2022/06/21 05:28:09;;;;;;;3.72;2.05;;;13.80;99.90;;;;;;5023712;28;20240;-75
2022/06/21 05:30:49;;;;;;;2.97;1.95;;;13.90;99.90;;;;;;5021320;28;20215;-75
2022/06/21 05:33:31;;;;;;;2.65;1.90;;;14.00;99.90;;;;;;5021884;28;20196;-76
2022/06/21 05:35:57;;;;;;;1.92;1.83;;;14.00;99.90;;;;;;5025544;28;20635;-75
2022/06/21 05:38:26;;;;;;;2.30;2.10;;;14.10;99.90;;;;;;5030488;28;20295;-76
2022/06/21 05:41:29;;;;;;;1.90;1.80;;;14.20;99.90;;;;;;5034654;28;20267;-76
2022/06/21 05:44:21;;;;;;;2.47;1.90;;;14.20;99.90;;;;;;5021879;28;20691;-76
2022/06/21 05:46:49;;;;;;;3.05;1.70;;;14.30;99.90;;;;;;5023660;28;20213;-75
2022/06/21 05:49:25;;;;;;;2.63;2.10;;;14.30;99.90;;;;;;5028793;28;20201;-75
2022/06/21 05:51:54;;;;;;;3.80;2.10;;;14.40;99.90;;;;;;5035412;28;20278;-76
2022/06/21 05:54:25;;;;;;;2.00;1.90;;;14.50;99.90;;;;;;5047935;28;20184;-77
2022/06/21 05:56:51;;;;;;;2.40;2.05;;;14.60;99.90;;;;;;5054099;28;20214;-76
2022/06/21 05:59:20;;;;;;;2.35;1.65;;;14.70;99.90;;;;;;5031795;28;20170;-75
2022/06/21 06:01:58;;;;;;;3.03;1.92;;;14.70;99.90;;;;;;5014794;28;20272;-76
2022/06/21 06:04:33;;;;;;;5.57;1.88;;;14.80;99.90;;;;;;5014156;28;20450;-76
2022/06/21 06:07:01;;;;;;;2.17;1.95;;;14.90;99.90;;;;;;5014727;28;20183;-77
2022/06/21 06:09:34;;;;;;;1.98;1.85;;;15.00;99.90;;;;;;5014210;28;20176;-78
2022/06/21 06:12:04;;;;;;;5.07;2.35;;;15.10;99.90;;;;;;5015832;28;20206;-78
2022/06/21 06:14:52;;;;;;;3.05;1.98;;;15.20;99.90;;;;;;5018922;28;20308;-78
2022/06/21 06:17:52;;;;;;;3.50;1.95;;;15.30;99.90;;;;;;5023619;28;20231;-79
2022/06/21 06:20:38;;;;;;;3.83;2.03;;;15.40;99.90;;;;;;5015296;28;20192;-76
2022/06/21 06:23:29;;;;;;;3.00;1.85;;;15.50;99.90;;;;;;5022997;28;20204;-78
2022/06/21 06:25:59;;;;;;;2.15;1.98;;;15.60;99.90;;;;;;5028096;28;20171;-78
2022/06/21 06:28:44;;;;;;;3.55;2.15;;;15.80;99.90;;;;;;5019565;28;20209;-78
2022/06/21 06:31:20;;;;;;;1.90;1.67;;;15.90;99.90;;;;;;5033830;28;20549;-78
2022/06/21 06:33:52;;;;;;;3.55;1.85;;;16.00;99.90;;;;;;5037434;28;20679;-78
2022/06/21 06:36:22;;;;;;;3.50;2.00;;;16.10;99.90;;;;;;5026834;28;20176;-79
2022/06/21 06:38:48;;;;;;;2.38;1.65;;;16.30;99.90;;;;;;5028711;28;20184;-79
2022/06/21 06:41:50;;;;;;;3.50;2.53;;;16.40;99.90;;;;;;5023915;28;20220;-78
2022/06/21 06:44:18;;;;;;;2.08;1.90;;;16.60;99.90;;;;;;5015177;28;20197;-79
2022/06/21 06:46:51;;;;;;;5.20;1.55;;;16.70;99.90;;;;;;5014543;28;20190;-78
2022/06/21 06:49:29;;;;;;;3.15;1.83;;;16.80;99.90;;;;;;5035905;28;20177;-80
2022/06/21 06:52:17;;;;;;;4.18;2.00;;;16.90;99.90;;;;;;5027212;28;20180;-78
2022/06/21 06:55:00;;;;;;;4.25;2.45;;;17.00;99.90;;;;;;5025843;28;20187;-76
2022/06/21 06:57:42;;;;;;;2.20;2.03;;;17.10;99.90;;;;;;5045021;28;20286;-75
2022/06/21 07:00:17;;;;;;;3.03;1.80;;;17.20;99.90;;;;;;5036852;28;20199;-77
2022/06/21 07:02:52;;;;;;;3.58;2.20;;;17.30;99.90;;;;;;5028167;28;20220;-78
2022/06/21 07:05:20;;;;;;;2.03;1.92;;;17.40;99.90;;;;;;5033164;28;20188;-75
2022/06/21 07:07:53;;;;;;;1.92;1.77;;;17.50;99.90;;;;;;5021396;28;20189;-78
2022/06/21 07:10:24;;;;;;;3.22;2.20;;;17.70;99.90;;;;;;5031961;28;20714;-75
2022/06/21 07:12:52;;;;;;;2.33;2.20;;;17.80;99.90;;;;;;5019812;28;20295;-75
2022/06/21 07:15:25;;;;;;;2.45;1.95;;;17.80;99.90;;;;;;5016901;28;20549;-78
2022/06/21 07:17:56;;;;;;;2.95;1.95;;;17.90;99.90;;;;;;5027107;28;20215;-78
2022/06/21 07:20:24;;;;;;;3.05;2.30;;;17.90;99.90;;;;;;5034673;28;20178;-78
2022/06/21 07:22:52;;;;;;;2.28;1.95;;;18.00;99.90;;;;;;5030923;28;20193;-84
2022/06/21 07:25:40;;;;;;;3.72;2.88;;;18.00;99.90;;;;;;5029140;28;20227;-78
2022/06/21 07:28:16;;;;;;;2.05;1.90;;;18.10;99.90;;;;;;5028038;28;20185;-77
2022/06/21 07:30:46;;;;;;;4.18;2.15;;;18.30;99.90;;;;;;5025545;28;20267;-76
2022/06/21 07:33:50;;;;;;;2.08;1.85;;;18.30;99.90;;;;;;5023192;28;20566;-75
2022/06/21 07:36:21;;;;;;;3.08;2.00;;;18.10;99.90;;;;;;5000392;28;20196;-75
2022/06/21 07:38:54;;;;;;;3.45;1.98;;;18.20;99.90;;;;;;5027199;28;20186;-76
2022/06/21 07:41:28;;;;;;;3.58;1.77;;;18.30;99.90;;;;;;5022048;28;20250;-75
2022/06/21 07:44:10;;;;;;;3.03;2.20;;;18.30;99.90;;;;;;5033877;28;20187;-75
2022/06/21 07:46:43;;;;;;;2.30;2.17;;;18.30;99.90;;;;;;5032121;28;20176;-74
2022/06/21 07:49:25;;;;;;;2.97;1.80;;;18.30;99.90;;;;;;5022942;28;20204;-77
2022/06/21 07:51:54;;;;;;;1.70;1.60;;;18.50;99.90;;;;;;5015213;28;20549;-74
2022/06/21 07:54:33;;;;;;;1.48;1.30;;;18.60;99.90;;;;;;5025816;28;20659;-74
2022/06/21 07:57:05;;;;;;;4.22;1.85;;;18.80;99.90;;;;;;5036449;28;20203;-74
2022/06/21 07:59:38;;;;;;;2.85;1.67;;;18.80;99.90;;;;;;5051344;28;20619;-74
2022/06/21 08:07:51;;;;;;;2.03;1.40;;;18.80;99.90;;;;;;5015609;28;20196;-74
2022/06/21 08:10:22;;;;;;;3.35;2.25;;;19.00;99.90;;;;;;5035796;28;20184;-74
2022/06/21 08:12:49;;;;;;;5.25;2.15;;;19.10;99.90;;;;;;5032048;28;20212;-74
2022/06/21 08:15:15;;;;;;;2.13;1.70;;;19.20;99.90;;;;;;5035969;28;20659;-74
2022/06/21 08:17:52;;;;;;;3.15;2.15;;;19.30;99.90;;;;;;5033634;28;20612;-74
2022/06/21 08:20:42;;;;;;;4.18;1.60;;;19.30;99.90;;;;;;5016004;28;20187;-74
2022/06/21 08:23:21;;;;;;;1.83;1.73;;;19.30;99.60;;;;;;5016283;28;20240;-74
2022/06/21 08:25:47;;;;;;;2.13;1.88;;;19.40;99.90;;;;;;5015966;28;20256;-74
2022/06/21 08:28:23;;;;;;;2.40;1.85;;;19.50;99.90;;;;;;5016952;28;20597;-75
2022/06/21 08:31:06;;;;;;;2.95;1.98;;;19.70;99.90;;;;;;5015733;28;20224;-74
2022/06/21 08:33:47;;;;;;;3.33;1.60;;;19.80;99.50;;;;;;5015821;28;20683;-74
2022/06/21 08:36:22;;;;;;;1.83;1.65;;;19.90;98.30;;;;;;5015781;28;20599;-75
2022/06/21 08:38:59;;;;;;;4.18;1.90;;;19.90;99.30;;;;;;5015710;28;20176;-74
2022/06/21 08:42:09;;;;;;;2.67;1.70;;;19.80;97.30;;;;;;5016018;28;20169;-75
2022/06/21 08:48:42;;;;;;;3.03;1.67;;;19.90;99.90;;;;;;5035644;28;20206;-74
2022/06/21 08:51:39;;;;;;;1.80;1.70;;;20.00;99.60;;;;;;5025724;28;20260;-75
2022/06/21 08:54:11;;;;;;;1.65;1.55;;;20.20;98.70;;;;;;5015308;28;20292;-75
2022/06/21 08:56:39;;;;;;;1.90;1.80;;;20.40;96.00;;;;;;5015409;28;20197;-74
2022/06/21 08:59:41;;;;;;;2.95;2.00;;;20.50;95.50;;;;;;5017711;28;20177;-74
2022/06/21 09:02:10;;;;;;;3.00;1.90;;;20.70;96.30;;;;;;5020840;28;20199;-75
2022/06/21 09:04:56;;;;;;;3.30;1.70;;;20.90;97.30;;;;;;5035007;28;20268;-74
2022/06/21 09:07:38;;;;;;;2.33;1.90;;;21.10;95.10;;;;;;5034038;28;20258;-74
2022/06/21 09:10:19;;;;;;;4.03;1.88;;;21.20;95.40;;;;;;5015324;28;20312;-74
2022/06/21 09:13:24;;;;;;;1.58;1.50;;;21.30;92.60;;;;;;5014536;28;20193;-74
2022/06/21 09:16:09;;;;;;;1.73;1.50;;;21.30;91.20;;;;;;5015305;28;20185;-74
2022/06/21 09:19:00;;;;;;;2.85;1.58;;;21.50;92.90;;;;;;5014684;28;20609;-74
2022/06/21 09:22:24;;;;;;;2.25;1.85;;;21.80;93.40;;;;;;5014846;28;20178;-75
2022/06/21 09:25:09;;;;;;;1.65;1.42;;;22.00;92.20;;;;;;4995447;28;20181;-74
2022/06/21 09:27:45;;;;;;;2.22;1.90;;;22.20;88.10;;;;;;5014725;28;20235;-75
2022/06/21 09:30:19;;;;;;;1.60;1.50;;;22.30;89.40;;;;;;5020445;28;20184;-75
2022/06/21 09:33:02;;;;;;;2.17;1.70;;;22.30;88.30;;;;;;5034592;28;20243;-75
2022/06/21 09:35:56;;;;;;;2.97;1.95;;;22.40;88.40;;;;;;5034504;28;20183;-75
2022/06/21 09:38:40;;;;;;;2.42;1.55;;;22.80;90.70;;;;;;5014229;28;20303;-75
2022/06/21 09:41:15;;;;;;;3.22;1.52;;;23.80;85.00;;;;;;5014153;28;20226;-75
2022/06/21 09:44:01;;;;;;;2.75;1.45;;;26.00;75.70;;;;;;5014056;28;20185;-75
2022/06/21 09:46:37;;;;;;;1.58;1.20;;;28.80;63.70;;;;;;5014027;28;20169;-75
2022/06/21 09:49:29;;;;;;;3.00;1.45;;;30.60;57.70;;;;;;5013870;28;20222;-72
2022/06/21 09:52:07;;;;;;;1.70;1.30;;;32.50;52.80;;;;;;5013973;28;20176;-72
2022/06/21 09:54:37;;;;;;;2.10;1.20;;;34.20;46.90;;;;;;5023657;28;20213;-72
2022/06/21 09:57:08;;;;;;;3.25;1.58;;;34.40;47.70;;;;;;5013855;28;20573;-73
2022/06/21 09:59:41;;;;;;;1.35;1.25;;;34.80;44.40;;;;;;5012994;28;20580;-73
2022/06/21 10:02:28;;;;;;;5.13;4.45;;;34.80;46.10;;;;;;5013214;28;20264;-73
2022/06/21 10:05:22;;;;;;;2.92;1.70;;;35.90;43.80;;;;;;5032648;28;20202;-71
2022/06/21 10:07:53;;;;;;;0.98;0.98;;;36.20;40.40;;;;;;5033327;28;20168;-70
2022/06/21 10:10:45;;;;;;;1.42;1.10;;;36.20;42.40;;;;;;5033199;28;20171;-71
2022/06/21 10:13:19;;;;;;;1.30;1.20;;;36.90;41.60;;;;;;5013417;28;20240;-71
2022/06/21 10:16:07;;;;;;;1.50;1.25;;;36.90;40.00;;;;;;5013475;28;20168;-71
2022/06/21 10:18:41;;;;;;;1.70;1.60;;;38.40;39.60;;;;;;5013179;28;20203;-71
2022/06/21 10:21:18;;;;;;;2.88;1.60;;;39.60;35.80;;;;;;5013337;28;20184;-71
2022/06/21 10:24:14;;;;;;;3.28;1.60;;;39.60;34.60;;;;;;5012551;28;20192;-71
2022/06/21 10:26:59;;;;;;;5.35;1.77;;;39.00;37.70;;;;;;5021055;28;20183;-71
2022/06/21 10:29:24;;;;;;;2.67;1.52;;;38.30;39.60;;;;;;5027871;28;20682;-71
2022/06/21 10:32:08;;;;;;;6.13;1.30;;;37.40;37.50;;;;;;5031169;28;20195;-71
2022/06/21 10:34:58;;;;;;;1.85;1.40;;;37.20;38.00;;;;;;5032829;28;20172;-71
2022/06/21 10:37:41;;;;;;;2.25;1.15;;;37.50;37.20;;;;;;5023033;28;20200;-70
2022/06/21 10:40:13;;;;;;;3.75;1.20;;;38.20;38.20;;;;;;5012478;28;20169;-71
2022/06/21 10:42:59;;;;;;;3.63;1.50;;;38.80;36.10;;;;;;5030676;28;20203;-71
2022/06/21 10:45:50;;;;;;;4.30;1.30;;;38.20;37.20;;;;;;5031333;28;20172;-71
2022/06/21 10:48:43;;;;;;;3.13;1.25;;;38.90;37.20;;;;;;5032126;28;20184;-71
2022/06/21 10:51:34;;;;;;;1.65;1.30;;;38.30;35.90;;;;;;5031177;28;20172;-70
2022/06/21 10:53:59;;;;;;;2.35;1.30;;;38.10;35.00;;;;;;5032183;28;20196;-71
2022/06/21 11:02:46;;;;;;;1.27;1.15;;;39.00;34.70;;;;;;5031957;28;20275;-71
2022/06/21 11:05:17;;;;;;;1.90;1.10;;;38.10;36.80;;;;;;5025797;28;20184;-71
2022/06/21 11:07:51;;;;;;;1.73;1.33;;;38.50;36.00;;;;;;5012671;28;20601;-70
2022/06/21 11:10:29;;;;;;;1.50;1.40;;;38.70;36.10;;;;;;5026751;28;20180;-71
2022/06/21 11:13:04;;;;;;;1.98;1.40;;;38.70;37.40;;;;;;5031752;28;20195;-71
2022/06/21 11:16:00;;;;;;;2.67;1.38;;;38.40;37.30;;;;;;5019206;28;20590;-71
2022/06/21 11:18:32;;;;;;;2.85;1.30;;;38.00;36.40;;;;;;5007914;28;20232;-71
2022/06/21 11:21:26;;;;;;;2.05;1.33;;;38.50;37.20;;;;;;5010937;28;20208;-71
2022/06/21 11:23:57;;;;;;;1.10;1.00;;;38.40;37.00;;;;;;5011775;28;20212;-71
2022/06/21 11:26:41;;;;;;;2.58;1.20;;;38.80;35.90;;;;;;5012484;28;20319;-71
2022/06/21 11:29:07;;;;;;;3.15;1.48;;;39.00;36.20;;;;;;5011986;28;20160;-71
2022/06/21 11:31:45;;;;;;;2.58;1.33;;;38.90;36.20;;;;;;5011717;28;20188;-72
2022/06/21 11:34:37;;;;;;;1.92;1.40;;;39.80;35.10;;;;;;5012146;28;20187;-71
2022/06/21 11:37:17;;;;;;;0.75;0.75;;;39.80;33.40;;;;;;5012046;28;20207;-71
2022/06/21 11:40:09;;;;;;;1.63;1.33;;;40.10;33.10;;;;;;5012088;28;20214;-71
2022/06/21 11:42:51;;;;;;;3.05;1.70;;;40.20;35.70;;;;;;5007438;28;20212;-71
2022/06/21 11:45:49;;;;;;;10.13;1.50;;;39.20;35.60;;;;;;5011990;28;20172;-71
2022/06/21 11:48:33;;;;;;;1.30;1.10;;;38.20;36.10;;;;;;5011909;28;20516;-71
2022/06/21 11:51:10;;;;;;;2.28;1.15;;;38.40;37.90;;;;;;5019762;28;20671;-71
2022/06/21 11:53:57;;;;;;;1.90;1.30;;;39.10;35.90;;;;;;5015996;28;20303;-71
2022/06/21 11:56:38;;;;;;;0.80;0.80;;;39.40;34.90;;;;;;5011873;28;20542;-71
2022/06/21 11:59:17;;;;;;;4.20;1.27;;;40.10;33.20;;;;;;5012076;28;20204;-71
2022/06/21 12:02:13;;;;;;;1.10;1.00;;;40.80;33.20;;;;;;5011514;28;20632;-72
2022/06/21 12:04:51;;;;;;;3.67;1.58;;;40.00;32.80;;;;;;5011838;28;20222;-71
2022/06/21 12:07:28;;;;;;;3.17;1.60;;;38.10;35.10;;;;;;5019230;28;20658;-71
2022/06/21 12:10:02;;;;;;;1.58;1.27;;;37.90;36.90;;;;;;5011733;28;20177;-71
2022/06/21 12:12:57;;;;;;;2.40;1.20;;;37.90;35.50;;;;;;5011190;28;20671;-71
2022/06/21 12:16:09;;;;;;;1.15;1.05;;;37.70;36.50;;;;;;5011645;28;20177;-71
2022/06/21 12:18:36;;;;;;;1.33;1.17;;;36.60;36.50;;;;;;5011573;28;20218;-71
2022/06/21 12:21:08;;;;;;;3.72;1.25;;;35.80;37.10;;;;;;5011633;28;20181;-71
2022/06/21 12:23:49;;;;;;;1.05;0.90;;;35.40;38.50;;;;;;5011785;28;20188;-72
2022/06/21 12:26:26;;;;;;;2.58;1.17;;;35.50;38.90;;;;;;5012514;28;20651;-71
2022/06/21 12:28:54;;;;;;;2.72;0.95;;;35.60;37.40;;;;;;5011224;28;20192;-70
2022/06/21 12:31:43;;;;;;;1.05;1.05;;;35.70;38.20;;;;;;5011451;28;20181;-71
2022/06/21 12:34:33;;;;;;;1.33;1.00;;;36.10;39.20;;;;;;5011490;28;20589;-72
2022/06/21 12:37:23;;;;;;;1.02;1.00;;;35.40;40.00;;;;;;5024572;28;20559;-71
2022/06/21 12:39:55;;;;;;;1.63;1.30;;;36.10;38.70;;;;;;5031401;28;20624;-69
2022/06/21 12:42:32;;;;;;;1.15;1.05;;;37.10;38.00;;;;;;5031044;28;20199;-72
2022/06/21 12:45:31;;;;;;;1.27;1.25;;;38.30;38.50;;;;;;5034473;28;20168;-70
2022/06/21 12:48:15;;;;;;;2.65;1.30;;;40.00;36.80;;;;;;5033527;28;20172;-70
2022/06/21 12:51:31;;;;;;;1.95;1.25;;;42.30;33.90;;;;;;5023485;28;20180;-70
2022/06/21 12:54:14;;;;;;;1.77;0.90;;;44.80;30.60;;;;;;5013576;28;20235;-70
2022/06/21 12:57:21;;;;;;;1.00;0.90;;;46.30;30.10;;;;;;5029963;28;20677;-70
2022/06/21 13:00:02;;;;;;;0.90;0.90;;;47.30;29.40;;;;;;5014897;28;20215;-69
2022/06/21 13:02:40;;;;;;;1.25;0.90;;;47.70;29.40;;;;;;5014099;28;20208;-71
2022/06/21 13:05:39;;;;;;;0.73;0.70;;;48.20;29.30;;;;;;5022772;28;20183;-71
2022/06/21 13:08:35;;;;;;;1.27;1.10;;;49.10;28.70;;;;;;5034538;28;20195;-71
2022/06/21 13:11:26;;;;;;;2.33;1.17;;;51.10;27.40;;;;;;5029527;28;20177;-70
2022/06/21 13:14:20;;;;;;;2.13;1.17;;;51.20;27.10;;;;;;5014261;28;20742;-70
2022/06/21 13:17:16;;;;;;;3.50;1.48;;;50.80;27.40;;;;;;5013220;28;20277;-72
2022/06/21 13:19:45;;;;;;;1.00;0.98;;;50.50;27.80;;;;;;5026488;28;20176;-70
2022/06/21 13:22:50;;;;;;;1.08;0.70;;;51.10;27.00;;;;;;5014802;28;20232;-70
2022/06/21 13:26:01;;;;;;;1.42;0.85;;;52.00;26.70;;;;;;5012410;28;20250;-70
2022/06/21 13:28:54;;;;;;;1.13;0.98;;;54.30;25.80;;;;;;5005691;28;20224;-71
2022/06/21 13:31:40;;;;;;;1.88;1.13;;;54.70;26.30;;;;;;5014085;28;20184;-71
2022/06/21 13:34:24;;;;;;;0.90;0.90;;;55.50;25.90;;;;;;5014016;28;20320;-71
2022/06/21 13:36:54;;;;;;;0.98;0.90;;;56.70;25.70;;;;;;5014963;28;20200;-71
2022/06/21 13:39:43;;;;;;;1.70;1.00;;;57.20;25.10;;;;;;5013755;28;20192;-72
2022/06/21 13:42:37;;;;;;;1.25;1.15;;;57.50;25.10;;;;;;5013681;28;20213;-71
2022/06/21 13:45:26;;;;;;;1.73;1.05;;;57.70;25.00;;;;;;5014409;28;20226;-71
2022/06/21 13:48:09;;;;;;;0.70;0.70;;;59.00;24.90;;;;;;5013845;28;20220;-71
2022/06/21 13:50:51;;;;;;;2.53;1.15;;;60.20;24.10;;;;;;5023082;28;20176;-73
2022/06/21 13:53:48;;;;;;;0.80;0.80;;;59.20;24.30;;;;;;5032853;28;20197;-71
2022/06/21 13:56:43;;;;;;;1.25;1.00;;;59.80;23.80;;;;;;5027172;28;20199;-72
2022/06/21 13:59:16;;;;;;;1.33;1.20;;;60.80;23.80;;;;;;5013683;28;20190;-71
2022/06/21 14:02:06;;;;;;;1.75;1.50;;;61.70;23.70;;;;;;5013382;28;20169;-72
2022/06/21 14:04:49;;;;;;;2.15;0.73;;;61.20;23.30;;;;;;5019974;28;20690;-71